PWSweather.com
Personal Weather Stations
Station Observations

CreweGB

Lat: 53.0806, Lon: -2.476

Elevation: 151

Station Type: Davis Vantage Pro 2

http://www.c9700170.myzen.co.uk/weather/

Latest ConditionsUpdated 7:50:02 PM GMT Tuesday, Sep 25, 2018
Currently Today's Max Today's Min Today's Average
Temperature 56.5°F13.6°C 64.8°F18.2°C 36.5°F2.5°C 50.3°F10.2°C
Dew Point 46.0°F7.8°C 47.6°F8.7°C 34.3°F1.3°C 41.4°F5.2°C
Winds 5.0 mph SSW8.0 kmh SSW 9.0 mph -14.5 kmh - - 4.2 mph 6.8 kmh
Wind Gusts 12.0 mph19.3 kmh 20.0 mph32.2 kmh - -
Humidity 68% 95% 49% 74%
Pressure 30.48 in1032.2 mb 30.67 in1038.6 mb 30.47 in1031.8 mb -
Hour Temp Dew Point Humidity Winds Wind Gusts Pressure Precip Precip Rate Daily Precip Total
07:50 PM 56.5°F13.6°C 46.0°F7.8°C 68% 5.0 mph SSW8.0 kmh SSW 12.0 mph19.3 kmh 30.48 in1032.2 mb 0.00 in0.0 mm 0.00 in0.0 mm 0.00 in0.0 mm
07:40 PM 56.5°F13.6°C 46.0°F7.8°C 68% 3.0 mph SSW4.8 kmh SSW 6.0 mph9.7 kmh 30.49 in1032.5 mb 0.00 in0.0 mm 0.00 in0.0 mm 0.00 in0.0 mm
07:30 PM 56.7°F13.7°C 45.8°F7.7°C 67% 6.0 mph SSW9.7 kmh SSW 12.0 mph19.3 kmh 30.49 in1032.5 mb 0.00 in0.0 mm 0.00 in0.0 mm 0.00 in0.0 mm
07:20 PM 56.7°F13.7°C 45.4°F7.4°C 66% 6.0 mph SSW9.7 kmh SSW 14.0 mph22.5 kmh 30.48 in1032.2 mb 0.00 in0.0 mm 0.00 in0.0 mm 0.00 in0.0 mm
07:10 PM 56.7°F13.7°C 45.4°F7.4°C 66% 6.0 mph SW9.7 kmh SW 12.0 mph19.3 kmh 30.49 in1032.5 mb 0.00 in0.0 mm 0.00 in0.0 mm 0.00 in0.0 mm
07:00 PM 56.8°F13.8°C 45.6°F7.6°C 66% 6.0 mph SSW9.7 kmh SSW 12.0 mph19.3 kmh 30.48 in1032.2 mb 0.00 in0.0 mm 0.00 in0.0 mm 0.00 in0.0 mm
06:50 PM 56.8°F13.8°C 45.2°F7.3°C 65% 5.0 mph SW8.0 kmh SW 10.0 mph16.1 kmh 30.48 in1032.2 mb 0.00 in0.0 mm 0.00 in0.0 mm 0.00 in0.0 mm
06:40 PM 56.7°F13.7°C 45.0°F7.2°C 65% 6.0 mph SSW9.7 kmh SSW 12.0 mph19.3 kmh 30.48 in1032.2 mb 0.00 in0.0 mm 0.00 in0.0 mm 0.00 in0.0 mm
06:30 PM 56.7°F13.7°C 45.0°F7.2°C 65% 6.0 mph SSW9.7 kmh SSW 10.0 mph16.1 kmh 30.48 in1032.2 mb 0.00 in0.0 mm 0.00 in0.0 mm 0.00 in0.0 mm
06:20 PM 56.8°F13.8°C 44.8°F7.1°C 64% 5.0 mph SSW8.0 kmh SSW 12.0 mph19.3 kmh 30.48 in1032.2 mb 0.00 in0.0 mm 0.00 in0.0 mm 0.00 in0.0 mm
06:10 PM 57.0°F13.9°C 44.5°F6.9°C 63% 6.0 mph SSW9.7 kmh SSW 9.0 mph14.5 kmh 30.48 in1032.2 mb 0.00 in0.0 mm 0.00 in0.0 mm 0.00 in0.0 mm
06:00 PM 57.6°F14.2°C 45.1°F7.3°C 63% 7.0 mph SSW11.3 kmh SSW 14.0 mph22.5 kmh 30.48 in1032.2 mb 0.00 in0.0 mm 0.00 in0.0 mm 0.00 in0.0 mm
05:50 PM 57.9°F14.4°C 45.0°F7.2°C 62% 7.0 mph SSW11.3 kmh SSW 12.0 mph19.3 kmh 30.47 in1031.8 mb 0.00 in0.0 mm 0.00 in0.0 mm 0.00 in0.0 mm
05:40 PM 58.6°F14.8°C 45.2°F7.3°C 61% 6.0 mph SW9.7 kmh SW 15.0 mph24.1 kmh 30.47 in1031.8 mb 0.00 in0.0 mm 0.00 in0.0 mm 0.00 in0.0 mm
05:30 PM 59.2°F15.1°C 45.3°F7.4°C 60% 7.0 mph SSW11.3 kmh SSW 12.0 mph19.3 kmh 30.48 in1032.2 mb 0.00 in0.0 mm 0.00 in0.0 mm 0.00 in0.0 mm
05:20 PM 59.7°F15.4°C 45.4°F7.4°C 59% 7.0 mph SSW11.3 kmh SSW 13.0 mph20.9 kmh 30.47 in1031.8 mb 0.00 in0.0 mm 0.00 in0.0 mm 0.00 in0.0 mm
05:10 PM 60.3°F15.7°C 45.4°F7.4°C 58% 6.0 mph SSW9.7 kmh SSW 12.0 mph19.3 kmh 30.47 in1031.8 mb 0.00 in0.0 mm 0.00 in0.0 mm 0.00 in0.0 mm
05:00 PM 60.6°F15.9°C 45.8°F7.7°C 58% 7.0 mph SSW11.3 kmh SSW 12.0 mph19.3 kmh 30.47 in1031.8 mb 0.00 in0.0 mm 0.00 in0.0 mm 0.00 in0.0 mm
04:50 PM 61.2°F16.2°C 45.3°F7.4°C 56% 6.0 mph SW9.7 kmh SW 13.0 mph20.9 kmh 30.48 in1032.2 mb 0.00 in0.0 mm 0.00 in0.0 mm 0.00 in0.0 mm
04:40 PM 61.3°F16.3°C 45.5°F7.5°C 56% 7.0 mph SW11.3 kmh SW 14.0 mph22.5 kmh 30.48 in1032.2 mb 0.00 in0.0 mm 0.00 in0.0 mm 0.00 in0.0 mm
04:30 PM 61.9°F16.6°C 45.5°F7.5°C 55% 7.0 mph SW11.3 kmh SW 13.0 mph20.9 kmh 30.48 in1032.2 mb 0.00 in0.0 mm 0.00 in0.0 mm 0.00 in0.0 mm
04:20 PM 62.2°F16.8°C 44.4°F6.9°C 52% 8.0 mph SW12.9 kmh SW 14.0 mph22.5 kmh 30.48 in1032.2 mb 0.00 in0.0 mm 0.00 in0.0 mm 0.00 in0.0 mm
04:10 PM 62.8°F17.1°C 45.4°F7.4°C 53% 8.0 mph SW12.9 kmh SW 15.0 mph24.1 kmh 30.48 in1032.2 mb 0.00 in0.0 mm 0.00 in0.0 mm 0.00 in0.0 mm
04:00 PM 63.5°F17.5°C 45.0°F7.2°C 51% 8.0 mph SSW12.9 kmh SSW 14.0 mph22.5 kmh 30.48 in1032.2 mb 0.00 in0.0 mm 0.00 in0.0 mm 0.00 in0.0 mm
03:50 PM 63.1°F17.3°C 45.2°F7.3°C 52% 8.0 mph SSW12.9 kmh SSW 15.0 mph24.1 kmh 30.49 in1032.5 mb 0.00 in0.0 mm 0.00 in0.0 mm 0.00 in0.0 mm
03:40 PM 63.1°F17.3°C 45.2°F7.3°C 52% 8.0 mph SW12.9 kmh SW 15.0 mph24.1 kmh 30.49 in1032.5 mb 0.00 in0.0 mm 0.00 in0.0 mm 0.00 in0.0 mm
03:30 PM 63.7°F17.6°C 45.2°F7.3°C 51% 8.0 mph SW12.9 kmh SW 17.0 mph27.4 kmh 30.50 in1032.8 mb 0.00 in0.0 mm 0.00 in0.0 mm 0.00 in0.0 mm
03:20 PM 64.0°F17.8°C 45.0°F7.2°C 50% 8.0 mph SW12.9 kmh SW 16.0 mph25.7 kmh 30.51 in1033.2 mb 0.00 in0.0 mm 0.00 in0.0 mm 0.00 in0.0 mm
03:10 PM 64.8°F18.2°C 45.1°F7.3°C 49% 7.0 mph SW11.3 kmh SW 13.0 mph20.9 kmh 30.52 in1033.5 mb 0.00 in0.0 mm 0.00 in0.0 mm 0.00 in0.0 mm
03:00 PM 64.8°F18.2°C 46.2°F7.9°C 51% 7.0 mph SSW11.3 kmh SSW 12.0 mph19.3 kmh 30.52 in1033.5 mb 0.00 in0.0 mm 0.00 in0.0 mm 0.00 in0.0 mm
02:50 PM 64.2°F17.9°C 46.2°F7.9°C 52% 7.0 mph SW11.3 kmh SW 14.0 mph22.5 kmh 30.52 in1033.5 mb 0.00 in0.0 mm 0.00 in0.0 mm 0.00 in0.0 mm
02:40 PM 63.7°F17.6°C 45.2°F7.3°C 51% 8.0 mph SW12.9 kmh SW 16.0 mph25.7 kmh 30.52 in1033.5 mb 0.00 in0.0 mm 0.00 in0.0 mm 0.00 in0.0 mm
02:30 PM 64.2°F17.9°C 45.2°F7.3°C 50% 6.0 mph SW9.7 kmh SW 10.0 mph16.1 kmh 30.51 in1033.2 mb 0.00 in0.0 mm 0.00 in0.0 mm 0.00 in0.0 mm
02:20 PM 63.1°F17.3°C 45.2°F7.3°C 52% 7.0 mph SW11.3 kmh SW 14.0 mph22.5 kmh 30.52 in1033.5 mb 0.00 in0.0 mm 0.00 in0.0 mm 0.00 in0.0 mm
02:10 PM 64.6°F18.1°C 47.6°F8.7°C 54% 6.0 mph SSW9.7 kmh SSW 20.0 mph32.2 kmh 30.52 in1033.5 mb 0.00 in0.0 mm 0.00 in0.0 mm 0.00 in0.0 mm
02:00 PM 63.9°F17.7°C 45.9°F7.7°C 52% 8.0 mph SW12.9 kmh SW 16.0 mph25.7 kmh 30.52 in1033.5 mb 0.00 in0.0 mm 0.00 in0.0 mm 0.00 in0.0 mm
01:50 PM 64.0°F17.8°C 46.1°F7.8°C 52% 8.0 mph SSW12.9 kmh SSW 16.0 mph25.7 kmh 30.52 in1033.5 mb 0.00 in0.0 mm 0.00 in0.0 mm 0.00 in0.0 mm
01:40 PM 64.2°F17.9°C 46.2°F7.9°C 52% 8.0 mph SSW12.9 kmh SSW 18.0 mph29.0 kmh 30.52 in1033.5 mb 0.00 in0.0 mm 0.00 in0.0 mm 0.00 in0.0 mm
01:30 PM 64.4°F18.0°C 46.4°F8.0°C 52% 7.0 mph SSW11.3 kmh SSW 15.0 mph24.1 kmh 30.53 in1033.9 mb 0.00 in0.0 mm 0.00 in0.0 mm 0.00 in0.0 mm
01:20 PM 63.9°F17.7°C 46.4°F8.0°C 53% 7.0 mph SW11.3 kmh SW 15.0 mph24.1 kmh 30.54 in1034.2 mb 0.00 in0.0 mm 0.00 in0.0 mm 0.00 in0.0 mm
01:10 PM 63.0°F17.2°C 46.0°F7.8°C 54% 9.0 mph S14.5 kmh S 17.0 mph27.4 kmh 30.55 in1034.5 mb 0.00 in0.0 mm 0.00 in0.0 mm 0.00 in0.0 mm
01:00 PM 63.0°F17.2°C 45.6°F7.6°C 53% 7.0 mph S11.3 kmh S 15.0 mph24.1 kmh 30.55 in1034.5 mb 0.00 in0.0 mm 0.00 in0.0 mm 0.00 in0.0 mm
12:50 PM 62.4°F16.9°C 45.1°F7.3°C 53% 8.0 mph S12.9 kmh S 18.0 mph29.0 kmh 30.55 in1034.5 mb 0.00 in0.0 mm 0.00 in0.0 mm 0.00 in0.0 mm
12:40 PM 62.8°F17.1°C 45.9°F7.7°C 54% 7.0 mph SSW11.3 kmh SSW 13.0 mph20.9 kmh 30.56 in1034.9 mb 0.00 in0.0 mm 0.00 in0.0 mm 0.00 in0.0 mm
12:30 PM 62.1°F16.7°C 45.7°F7.6°C 55% 8.0 mph SSW12.9 kmh SSW 14.0 mph22.5 kmh 30.56 in1034.9 mb 0.00 in0.0 mm 0.00 in0.0 mm 0.00 in0.0 mm
12:20 PM 61.5°F16.4°C 46.1°F7.8°C 57% 8.0 mph S12.9 kmh S 17.0 mph27.4 kmh 30.57 in1035.2 mb 0.00 in0.0 mm 0.00 in0.0 mm 0.00 in0.0 mm
12:10 PM 61.5°F16.4°C 46.1°F7.8°C 57% 7.0 mph SSW11.3 kmh SSW 17.0 mph27.4 kmh 30.57 in1035.2 mb 0.00 in0.0 mm 0.00 in0.0 mm 0.00 in0.0 mm
12:00 PM 61.2°F16.2°C 45.8°F7.7°C 57% 8.0 mph SSW12.9 kmh SSW 15.0 mph24.1 kmh 30.57 in1035.2 mb 0.00 in0.0 mm 0.00 in0.0 mm 0.00 in0.0 mm
11:50 AM 61.2°F16.2°C 45.8°F7.7°C 57% 8.0 mph SSW12.9 kmh SSW 14.0 mph22.5 kmh 30.57 in1035.2 mb 0.00 in0.0 mm 0.00 in0.0 mm 0.00 in0.0 mm
11:40 AM 60.4°F15.8°C 45.1°F7.3°C 57% 9.0 mph S14.5 kmh S 20.0 mph32.2 kmh 30.57 in1035.2 mb 0.00 in0.0 mm 0.00 in0.0 mm 0.00 in0.0 mm
11:30 AM 60.6°F15.9°C 46.2°F7.9°C 59% 8.0 mph SSW12.9 kmh SSW 17.0 mph27.4 kmh 30.58 in1035.6 mb 0.00 in0.0 mm 0.00 in0.0 mm 0.00 in0.0 mm
11:20 AM 60.4°F15.8°C 46.0°F7.8°C 59% 9.0 mph SSW14.5 kmh SSW 16.0 mph25.7 kmh 30.58 in1035.6 mb 0.00 in0.0 mm 0.00 in0.0 mm 0.00 in0.0 mm
11:10 AM 60.3°F15.7°C 46.8°F8.2°C 61% 7.0 mph SSW11.3 kmh SSW 14.0 mph22.5 kmh 30.59 in1035.9 mb 0.00 in0.0 mm 0.00 in0.0 mm 0.00 in0.0 mm
11:00 AM 59.4°F15.2°C 46.3°F7.9°C 62% 9.0 mph SSW14.5 kmh SSW 15.0 mph24.1 kmh 30.59 in1035.9 mb 0.00 in0.0 mm 0.00 in0.0 mm 0.00 in0.0 mm
10:50 AM 58.6°F14.8°C 45.2°F7.3°C 61% 9.0 mph SSW14.5 kmh SSW 16.0 mph25.7 kmh 30.60 in1036.2 mb 0.00 in0.0 mm 0.00 in0.0 mm 0.00 in0.0 mm
10:40 AM 58.6°F14.8°C 46.1°F7.8°C 63% 8.0 mph SSW12.9 kmh SSW 17.0 mph27.4 kmh 30.60 in1036.2 mb 0.00 in0.0 mm 0.00 in0.0 mm 0.00 in0.0 mm
10:30 AM 57.9°F14.4°C 47.0°F8.3°C 67% 6.0 mph SSW9.7 kmh SSW 12.0 mph19.3 kmh 30.61 in1036.6 mb 0.00 in0.0 mm 0.00 in0.0 mm 0.00 in0.0 mm
10:20 AM 57.4°F14.1°C 46.9°F8.3°C 68% 6.0 mph S9.7 kmh S 12.0 mph19.3 kmh 30.61 in1036.6 mb 0.00 in0.0 mm 0.00 in0.0 mm 0.00 in0.0 mm
10:10 AM 56.7°F13.7°C 46.6°F8.1°C 69% 5.0 mph S8.0 kmh S 10.0 mph16.1 kmh 30.61 in1036.6 mb 0.00 in0.0 mm 0.00 in0.0 mm 0.00 in0.0 mm
10:00 AM 56.1°F13.4°C 46.1°F7.8°C 69% 5.0 mph S8.0 kmh S 10.0 mph16.1 kmh 30.62 in1036.9 mb 0.00 in0.0 mm 0.00 in0.0 mm 0.00 in0.0 mm
09:50 AM 55.9°F13.3°C 46.3°F7.9°C 70% 5.0 mph SSW8.0 kmh SSW 10.0 mph16.1 kmh 30.62 in1036.9 mb 0.00 in0.0 mm 0.00 in0.0 mm 0.00 in0.0 mm
09:40 AM 54.9°F12.7°C 45.6°F7.6°C 71% 6.0 mph SSW9.7 kmh SSW 13.0 mph20.9 kmh 30.62 in1036.9 mb 0.00 in0.0 mm 0.00 in0.0 mm 0.00 in0.0 mm
09:30 AM 53.8°F12.1°C 45.3°F7.4°C 73% 6.0 mph S9.7 kmh S 12.0 mph19.3 kmh 30.62 in1036.9 mb 0.00 in0.0 mm 0.00 in0.0 mm 0.00 in0.0 mm
09:20 AM 53.2°F11.8°C 45.2°F7.3°C 74% 5.0 mph S8.0 kmh S 12.0 mph19.3 kmh 30.62 in1036.9 mb 0.00 in0.0 mm 0.00 in0.0 mm 0.00 in0.0 mm
09:10 AM 52.3°F11.3°C 45.0°F7.2°C 76% 5.0 mph SSW8.0 kmh SSW 10.0 mph16.1 kmh 30.62 in1036.9 mb 0.00 in0.0 mm 0.00 in0.0 mm 0.00 in0.0 mm
09:00 AM 51.4°F10.8°C 45.5°F7.5°C 80% 5.0 mph SSW8.0 kmh SSW 12.0 mph19.3 kmh 30.63 in1037.3 mb 0.00 in0.0 mm 0.00 in0.0 mm 0.00 in0.0 mm
08:50 AM 49.6°F9.8°C 46.2°F7.9°C 88% 5.0 mph SSW8.0 kmh SSW 10.0 mph16.1 kmh 30.63 in1037.3 mb 0.00 in0.0 mm 0.00 in0.0 mm 0.00 in0.0 mm
08:40 AM 46.0°F7.8°C 44.4°F6.9°C 94% 3.0 mph S4.8 kmh S 10.0 mph16.1 kmh 30.63 in1037.3 mb 0.00 in0.0 mm 0.00 in0.0 mm 0.00 in0.0 mm
08:30 AM 44.8°F7.1°C 43.4°F6.3°C 95% 3.0 mph SSW4.8 kmh SSW 8.0 mph12.9 kmh 30.63 in1037.3 mb 0.00 in0.0 mm 0.00 in0.0 mm 0.00 in0.0 mm
08:20 AM 43.3°F6.3°C 41.7°F5.4°C 94% 3.0 mph S4.8 kmh S 8.0 mph12.9 kmh 30.63 in1037.3 mb 0.00 in0.0 mm 0.00 in0.0 mm 0.00 in0.0 mm
08:10 AM 42.4°F5.8°C 40.8°F4.9°C 94% 2.0 mph SSW3.2 kmh SSW 3.0 mph4.8 kmh 30.63 in1037.3 mb 0.00 in0.0 mm 0.00 in0.0 mm 0.00 in0.0 mm
08:00 AM 41.4°F5.2°C 39.8°F4.3°C 94% 2.0 mph S3.2 kmh S 3.0 mph4.8 kmh 30.64 in1037.6 mb 0.00 in0.0 mm 0.00 in0.0 mm 0.00 in0.0 mm
07:50 AM 39.9°F4.4°C 38.3°F3.5°C 94% 2.0 mph S3.2 kmh S 5.0 mph8.0 kmh 30.64 in1037.6 mb 0.00 in0.0 mm 0.00 in0.0 mm 0.00 in0.0 mm
07:40 AM 39.2°F4.0°C 37.3°F2.9°C 93% 1.0 mph SE1.6 kmh SE 3.0 mph4.8 kmh 30.64 in1037.6 mb 0.00 in0.0 mm 0.00 in0.0 mm 0.00 in0.0 mm
07:30 AM 38.7°F3.7°C 37.1°F2.8°C 94% 1.0 mph SE1.6 kmh SE 3.0 mph4.8 kmh 30.64 in1037.6 mb 0.00 in0.0 mm 0.00 in0.0 mm 0.00 in0.0 mm
07:20 AM 37.8°F3.2°C 35.9°F2.2°C 93% 1.0 mph SE1.6 kmh SE 2.0 mph3.2 kmh 30.64 in1037.6 mb 0.00 in0.0 mm 0.00 in0.0 mm 0.00 in0.0 mm
07:10 AM 37.0°F2.8°C 35.2°F1.8°C 93% Calm Calm 1.0 mph1.6 kmh 30.64 in1037.6 mb 0.00 in0.0 mm 0.00 in0.0 mm 0.00 in0.0 mm
07:00 AM 36.9°F2.7°C 35.0°F1.7°C 93% Calm Calm 2.0 mph3.2 kmh 30.64 in1037.6 mb 0.00 in0.0 mm 0.00 in0.0 mm 0.00 in0.0 mm
06:50 AM 36.7°F2.6°C 34.8°F1.6°C 93% Calm Calm -- 30.64 in1037.6 mb 0.00 in0.0 mm 0.00 in0.0 mm 0.00 in0.0 mm
06:40 AM 36.7°F2.6°C 34.6°F1.4°C 92% Calm Calm -- 30.64 in1037.6 mb 0.00 in0.0 mm 0.00 in0.0 mm 0.00 in0.0 mm
06:30 AM 36.7°F2.6°C 34.8°F1.6°C 93% 1.0 mph SE1.6 kmh SE 2.0 mph3.2 kmh 30.63 in1037.3 mb 0.00 in0.0 mm 0.00 in0.0 mm 0.00 in0.0 mm
06:20 AM 36.7°F2.6°C 34.8°F1.6°C 93% 1.0 mph SE1.6 kmh SE 3.0 mph4.8 kmh 30.63 in1037.3 mb 0.00 in0.0 mm 0.00 in0.0 mm 0.00 in0.0 mm
06:10 AM 36.9°F2.7°C 34.8°F1.6°C 92% 1.0 mph SSE1.6 kmh SSE 2.0 mph3.2 kmh 30.62 in1036.9 mb 0.00 in0.0 mm 0.00 in0.0 mm 0.00 in0.0 mm
06:00 AM 36.9°F2.7°C 34.8°F1.6°C 92% 1.0 mph SSE1.6 kmh SSE 3.0 mph4.8 kmh 30.62 in1036.9 mb 0.00 in0.0 mm 0.00 in0.0 mm 0.00 in0.0 mm
05:50 AM 37.0°F2.8°C 34.9°F1.6°C 92% 2.0 mph SSE3.2 kmh SSE 3.0 mph4.8 kmh 30.62 in1036.9 mb 0.00 in0.0 mm 0.00 in0.0 mm 0.00 in0.0 mm
05:40 AM 36.9°F2.7°C 34.8°F1.6°C 92% 2.0 mph SE3.2 kmh SE 3.0 mph4.8 kmh 30.62 in1036.9 mb 0.00 in0.0 mm 0.00 in0.0 mm 0.00 in0.0 mm
05:30 AM 36.9°F2.7°C 34.8°F1.6°C 92% 3.0 mph SSE4.8 kmh SSE 5.0 mph8.0 kmh 30.62 in1036.9 mb 0.00 in0.0 mm 0.00 in0.0 mm 0.00 in0.0 mm
05:20 AM 36.7°F2.6°C 34.6°F1.4°C 92% 1.0 mph SE1.6 kmh SE 3.0 mph4.8 kmh 30.63 in1037.3 mb 0.00 in0.0 mm 0.00 in0.0 mm 0.00 in0.0 mm
05:10 AM 36.7°F2.6°C 34.6°F1.4°C 92% 1.0 mph SE1.6 kmh SE 2.0 mph3.2 kmh 30.62 in1036.9 mb 0.00 in0.0 mm 0.00 in0.0 mm 0.00 in0.0 mm
05:00 AM 36.7°F2.6°C 34.6°F1.4°C 92% 2.0 mph SSE3.2 kmh SSE 3.0 mph4.8 kmh 30.62 in1036.9 mb 0.00 in0.0 mm 0.00 in0.0 mm 0.00 in0.0 mm
04:50 AM 36.5°F2.5°C 34.4°F1.3°C 92% 1.0 mph SE1.6 kmh SE 2.0 mph3.2 kmh 30.63 in1037.3 mb 0.00 in0.0 mm 0.00 in0.0 mm 0.00 in0.0 mm
04:40 AM 36.7°F2.6°C 34.6°F1.4°C 92% 1.0 mph SE1.6 kmh SE 2.0 mph3.2 kmh 30.63 in1037.3 mb 0.00 in0.0 mm 0.00 in0.0 mm 0.00 in0.0 mm
04:30 AM 36.7°F2.6°C 34.6°F1.4°C 92% Calm Calm 2.0 mph3.2 kmh 30.63 in1037.3 mb 0.00 in0.0 mm 0.00 in0.0 mm 0.00 in0.0 mm
04:20 AM 36.9°F2.7°C 34.8°F1.6°C 92% 1.0 mph S1.6 kmh S 3.0 mph4.8 kmh 30.63 in1037.3 mb 0.00 in0.0 mm 0.00 in0.0 mm 0.00 in0.0 mm
04:10 AM 36.9°F2.7°C 34.8°F1.6°C 92% 1.0 mph S1.6 kmh S 3.0 mph4.8 kmh 30.63 in1037.3 mb 0.00 in0.0 mm 0.00 in0.0 mm 0.00 in0.0 mm
04:00 AM 36.9°F2.7°C 34.8°F1.6°C 92% 1.0 mph S1.6 kmh S 3.0 mph4.8 kmh 30.64 in1037.6 mb 0.00 in0.0 mm 0.00 in0.0 mm 0.00 in0.0 mm
03:50 AM 36.9°F2.7°C 34.8°F1.6°C 92% Calm Calm 2.0 mph3.2 kmh 30.64 in1037.6 mb 0.00 in0.0 mm 0.00 in0.0 mm 0.00 in0.0 mm
03:40 AM 36.9°F2.7°C 34.8°F1.6°C 92% 2.0 mph S3.2 kmh S 3.0 mph4.8 kmh 30.64 in1037.6 mb 0.00 in0.0 mm 0.00 in0.0 mm 0.00 in0.0 mm
03:30 AM 36.7°F2.6°C 34.3°F1.3°C 91% 1.0 mph SSE1.6 kmh SSE 5.0 mph8.0 kmh 30.64 in1037.6 mb 0.00 in0.0 mm 0.00 in0.0 mm 0.00 in0.0 mm
03:20 AM 36.7°F2.6°C 34.3°F1.3°C 91% 1.0 mph SSE1.6 kmh SSE 2.0 mph3.2 kmh 30.65 in1037.9 mb 0.00 in0.0 mm 0.00 in0.0 mm 0.00 in0.0 mm
03:10 AM 36.7°F2.6°C 34.3°F1.3°C 91% 1.0 mph SSE1.6 kmh SSE 2.0 mph3.2 kmh 30.65 in1037.9 mb 0.00 in0.0 mm 0.00 in0.0 mm 0.00 in0.0 mm
03:00 AM 36.9°F2.7°C 34.5°F1.4°C 91% 1.0 mph SSE1.6 kmh SSE 3.0 mph4.8 kmh 30.65 in1037.9 mb 0.00 in0.0 mm 0.00 in0.0 mm 0.00 in0.0 mm
02:50 AM 37.0°F2.8°C 34.7°F1.5°C 91% Calm Calm -- 30.66 in1038.3 mb 0.00 in0.0 mm 0.00 in0.0 mm 0.00 in0.0 mm
02:40 AM 37.0°F2.8°C 34.7°F1.5°C 91% Calm Calm -- 30.65 in1037.9 mb 0.00 in0.0 mm 0.00 in0.0 mm 0.00 in0.0 mm
02:30 AM 37.2°F2.9°C 34.8°F1.6°C 91% Calm Calm -- 30.66 in1038.3 mb 0.00 in0.0 mm 0.00 in0.0 mm 0.00 in0.0 mm
02:20 AM 37.2°F2.9°C 34.8°F1.6°C 91% Calm Calm -- 30.65 in1037.9 mb 0.00 in0.0 mm 0.00 in0.0 mm 0.00 in0.0 mm
02:10 AM 37.6°F3.1°C 35.2°F1.8°C 91% Calm Calm -- 30.66 in1038.3 mb 0.00 in0.0 mm 0.00 in0.0 mm 0.00 in0.0 mm
02:00 AM 37.6°F3.1°C 35.2°F1.8°C 91% Calm Calm 2.0 mph3.2 kmh 30.66 in1038.3 mb 0.00 in0.0 mm 0.00 in0.0 mm 0.00 in0.0 mm
01:50 AM 37.8°F3.2°C 35.4°F1.9°C 91% Calm Calm -- 30.66 in1038.3 mb 0.00 in0.0 mm 0.00 in0.0 mm 0.00 in0.0 mm
01:40 AM 37.9°F3.3°C 35.3°F1.8°C 90% Calm Calm -- 30.66 in1038.3 mb 0.00 in0.0 mm 0.00 in0.0 mm 0.00 in0.0 mm
01:30 AM 38.1°F3.4°C 35.7°F2.1°C 91% Calm Calm -- 30.66 in1038.3 mb 0.00 in0.0 mm 0.00 in0.0 mm 0.00 in0.0 mm
01:20 AM 38.5°F3.6°C 36.1°F2.3°C 91% Calm Calm 1.0 mph1.6 kmh 30.66 in1038.3 mb 0.00 in0.0 mm 0.00 in0.0 mm 0.00 in0.0 mm
01:10 AM 38.7°F3.7°C 36.0°F2.2°C 90% Calm Calm 2.0 mph3.2 kmh 30.66 in1038.3 mb 0.00 in0.0 mm 0.00 in0.0 mm 0.00 in0.0 mm
01:00 AM 38.8°F3.8°C 36.2°F2.3°C 90% 1.0 mph SSE1.6 kmh SSE 3.0 mph4.8 kmh 30.66 in1038.3 mb 0.00 in0.0 mm 0.00 in0.0 mm 0.00 in0.0 mm
12:50 AM 38.8°F3.8°C 36.2°F2.3°C 90% Calm Calm 3.0 mph4.8 kmh 30.66 in1038.3 mb 0.00 in0.0 mm 0.00 in0.0 mm 0.00 in0.0 mm
12:40 AM 39.2°F4.0°C 36.5°F2.5°C 90% Calm Calm 2.0 mph3.2 kmh 30.66 in1038.3 mb 0.00 in0.0 mm 0.00 in0.0 mm 0.00 in0.0 mm
12:30 AM 39.4°F4.1°C 36.7°F2.6°C 90% 1.0 mph S1.6 kmh S 3.0 mph4.8 kmh 30.67 in1038.6 mb 0.00 in0.0 mm 0.00 in0.0 mm 0.00 in0.0 mm
12:20 AM 39.4°F4.1°C 36.7°F2.6°C 90% 1.0 mph S1.6 kmh S 3.0 mph4.8 kmh 30.67 in1038.6 mb 0.00 in0.0 mm 0.00 in0.0 mm 0.00 in0.0 mm
12:10 AM 39.6°F4.2°C 36.9°F2.7°C 90% 1.0 mph S1.6 kmh S 3.0 mph4.8 kmh 30.67 in1038.6 mb 0.00 in0.0 mm 0.00 in0.0 mm 0.00 in0.0 mm
12:00 AM 39.7°F4.3°C 37.0°F2.8°C 90% 1.0 mph S1.6 kmh S 2.0 mph3.2 kmh 30.67 in1038.6 mb 0.00 in0.0 mm 0.00 in0.0 mm 0.00 in0.0 mm